4NK4 weather

Woodford Airfield
Fabius, New York, United States

Public forecast

Using degrees Fahrenheit for public forecast. Weather courtesy of forecast.io.

Closest aviation weather report (METAR) to Woodford Airfield

Closest report is Cortland County Chase Field, 16.4 nm (30.3 km) SSW. Retrieved 2020/06/02 23:35 UTC (18 minutes ago):

KN03 022335Z AUTO 00000KT 10SM BKN050 OVC060 17/10 A2982 RMK AO2

Closest aviation forecast (TAF) to Woodford Airfield

Closest forecast is Syracuse Hancock International Airport, 17.4 nm (32.3 km) NNW. Retrieved 2020/06/02 18:40 UTC (5 hours ago):

TAF KSYR 021738Z 0218/0318 22007KT P6SM OVC050 FM030300 VRB04KT P6SM -SHRA OVC030 FM030800 VRB03KT P6SM BKN018 FM031600 28008KT P6SM BKN024 FM031700 28008KT P6SM BKN035